Flight APNVIP2

  • Submitted By: Krzysztof H. Blaszkow
  • Departure Airport: Dublin (EIDW)
  • Arrival Airport: Ireland West Airport Knock (EIKN)
  • Aircraft: BE58 (EJ-IAWH)
  • Flight Time: 01.11.02
  • Date Submitted: 04/07/2017
  • Status: Accepted
Flight Details
Gross Revenue:
(5 load / € 4,000.00 per unit
€ 20,000.00
Fuel Cost:
(50.8023 fuel used @ 0.45 / unit)
€ 22.86

Additional Log Information:

View Log

[20:35] - Carenado BARON B58 GOLD GREEN
[20:35] - Flight APNVIP2 is ready to depart EIDW with a final destination of EIKN.
[20:35] - Parking Brake Applied
[20:35] - Beacon Light ON
[20:35] - Instrument Lights ON
[20:35] - Wing Lights ON
[20:35] - Boarding
[20:35] - ADF1 - 284.0
[20:35] - ADF2 - 240.0
[20:35] - NAV1 - 114.90
[20:35] - NAV2 - 110.60
[20:35] - COM1 - 135.10
[20:35] - COM2 - 123.45
[20:35] - Transponder - 6611
[20:38] - COM1 - 121.10
[20:43] - Transponder - 6673
[20:45] - Engine 1 Started
[20:45] - Engine 2 Started
[20:45] - Taxi Lights ON 3AGL
[20:47] - Parking Brake Released
[20:48] - COM1 - 131.15
[20:49] - Taxiing to Runway
[20:52] - Landing Lights ON 3AGL
[20:52] - Strobe Lights ON 3AGL
[20:53] - Taxi Lights OFF 3AGL
[20:54] - Taking Off with 5 passengers on board
[20:54] - Take off at 100kts, with a pitch of 4deg and 270lbs of fuel on board
[20:54] - Wind Heading 114 | Wind Speed 3kts | Temperature 9 deg C
[20:54] - METAR Departure: EIDW 071930Z 13009KT CAVOK 08/04 Q1024 NOSIG

[20:54] - Gear up at 193AGL
[20:54] - Climbing to TOC
[20:56] - AutoPilot Engaged at 3228AGL
[21:03] - Landing Lights OFF 10043AGL
[21:06] - TOC reached
[21:06] - Cruise started
[21:07] - NAV1 - 110.70
[21:19] - TOD reached
[21:19] - Descending to destination
[21:19] - Landing Lights ON 10427AGL
[21:25] - COM1 - 130.70
[21:25] - Landing Shortly
[21:31] - NAV1 - 117.40
[21:33] - NAV1 - 110.70
[21:35] - AutoPilot Disengaged at 2481AGL
[21:37] - Flaps to position 1 at 1499ft and 166kts
[21:37] - Gear down at 751AGL
[21:38] - Flaps to position 2 at 820ft and 121kts
[21:38] - Landed at -196fpm. With 163lbs of fuel onboard and a pitch angle of 1deg.
[21:38] - Wind Heading 151 | Wind Speed 8kts | Temperature 9 deg C
[21:38] - METAR Arrival: EIKN 071900Z 24002KT 9999 FEW026 08/04 Q1023 NOSIG

[21:38] - Flaps to position 1
[21:38] - Flaps to position 0
[21:39] - Taxiing to Gate
[21:44] - Landing Lights OFF 3AGL
[21:44] - Strobe Lights OFF 3AGL
[21:44] - Taxi Lights ON 3AGL
[21:46] - Taxi Lights OFF 3AGL
[21:46] - Parking Brake Applied
[21:46] - Arrived safely at EIKN. We hope you enjoyed your flight!
[21:46] - Engine 1 Stopped
[21:46] - Engine 2 Stopped
[21:46] - Carenado BARON B58 GOLD GREEN
[21:46] - MaxSim Rate: 1x
[21:46] - SiouxAcars ver: 1.0.1.2

Route Map